sensor_id;sensor_type;location;lat;lon;timestamp;temperature;humidity
6008;DHT22;3032;49.484;11.112;2022-09-17T00:00:12;11.40;99.90
6008;DHT22;3032;49.484;11.112;2022-09-17T00:02:38;11.40;99.90
6008;DHT22;3032;49.484;11.112;2022-09-17T00:05:04;11.40;99.90
6008;DHT22;3032;49.484;11.112;2022-09-17T00:07:30;11.30;99.90
6008;DHT22;3032;49.484;11.112;2022-09-17T00:09:56;11.10;99.90
6008;DHT22;3032;49.484;11.112;2022-09-17T00:12:21;11.00;99.90
6008;DHT22;3032;49.484;11.112;2022-09-17T00:14:47;11.00;99.90
6008;DHT22;3032;49.484;11.112;2022-09-17T00:17:12;11.00;99.90
6008;DHT22;3032;49.484;11.112;2022-09-17T00:19:38;10.90;99.90
6008;DHT22;3032;49.484;11.112;2022-09-17T00:22:04;10.80;99.90
6008;DHT22;3032;49.484;11.112;2022-09-17T00:24:30;10.70;99.90
6008;DHT22;3032;49.484;11.112;2022-09-17T00:26:55;10.60;99.90
6008;DHT22;3032;49.484;11.112;2022-09-17T00:29:21;10.60;99.90
6008;DHT22;3032;49.484;11.112;2022-09-17T00:31:46;10.50;99.90
6008;DHT22;3032;49.484;11.112;2022-09-17T00:34:12;10.30;99.90
6008;DHT22;3032;49.484;11.112;2022-09-17T00:36:38;10.30;99.90
6008;DHT22;3032;49.484;11.112;2022-09-17T00:39:06;10.40;99.90
6008;DHT22;3032;49.484;11.112;2022-09-17T00:41:33;10.50;99.90
6008;DHT22;3032;49.484;11.112;2022-09-17T00:44:37;10.50;99.90
6008;DHT22;3032;49.484;11.112;2022-09-17T00:46:48;10.70;99.90
6008;DHT22;3032;49.484;11.112;2022-09-17T00:49:23;10.70;99.90
6008;DHT22;3032;49.484;11.112;2022-09-17T00:52:03;10.70;99.90
6008;DHT22;3032;49.484;11.112;2022-09-17T00:54:30;10.60;99.90
6008;DHT22;3032;49.484;11.112;2022-09-17T00:56:56;10.50;99.90
6008;DHT22;3032;49.484;11.112;2022-09-17T00:59:23;10.40;99.90
6008;DHT22;3032;49.484;11.112;2022-09-17T01:01:50;10.40;99.90
6008;DHT22;3032;49.484;11.112;2022-09-17T01:04:17;10.40;99.90
6008;DHT22;3032;49.484;11.112;2022-09-17T01:09:52;10.60;99.90
6008;DHT22;3032;49.484;11.112;2022-09-17T01:12:45;10.80;99.90
6008;DHT22;3032;49.484;11.112;2022-09-17T01:18:40;10.60;99.90
6008;DHT22;3032;49.484;11.112;2022-09-17T01:21:23;10.50;99.90
6008;DHT22;3032;49.484;11.112;2022-09-17T01:27:15;10.60;99.90
6008;DHT22;3032;49.484;11.112;2022-09-17T01:32:57;10.80;99.90
6008;DHT22;3032;49.484;11.112;2022-09-17T01:43:50;10.60;99.90
6008;DHT22;3032;49.484;11.112;2022-09-17T01:46:29;10.60;99.90
6008;DHT22;3032;49.484;11.112;2022-09-17T01:48:59;10.50;99.90
6008;DHT22;3032;49.484;11.112;2022-09-17T01:51:27;10.40;99.90
6008;DHT22;3032;49.484;11.112;2022-09-17T01:54:04;10.40;99.90
6008;DHT22;3032;49.484;11.112;2022-09-17T01:56:38;10.30;99.90
6008;DHT22;3032;49.484;11.112;2022-09-17T01:59:17;10.30;99.90
6008;DHT22;3032;49.484;11.112;2022-09-17T02:01:47;10.40;99.90
6008;DHT22;3032;49.484;11.112;2022-09-17T02:04:20;10.60;99.90
6008;DHT22;3032;49.484;11.112;2022-09-17T02:06:54;10.60;99.90
6008;DHT22;3032;49.484;11.112;2022-09-17T02:09:23;10.70;99.90
6008;DHT22;3032;49.484;11.112;2022-09-17T02:11:55;10.80;99.90
6008;DHT22;3032;49.484;11.112;2022-09-17T02:14:50;10.90;99.90
6008;DHT22;3032;49.484;11.112;2022-09-17T02:17:51;11.00;99.90
6008;DHT22;3032;49.484;11.112;2022-09-17T02:20:23;11.00;99.90
6008;DHT22;3032;49.484;11.112;2022-09-17T02:22:55;10.90;99.90
6008;DHT22;3032;49.484;11.112;2022-09-17T02:25:30;11.00;99.90
6008;DHT22;3032;49.484;11.112;2022-09-17T02:28:12;11.10;99.90
6008;DHT22;3032;49.484;11.112;2022-09-17T02:30:39;11.20;99.90
6008;DHT22;3032;49.484;11.112;2022-09-17T02:33:07;11.10;99.90
6008;DHT22;3032;49.484;11.112;2022-09-17T02:35:34;11.10;99.90
6008;DHT22;3032;49.484;11.112;2022-09-17T02:38:01;11.20;99.90
6008;DHT22;3032;49.484;11.112;2022-09-17T02:40:32;11.50;99.90
6008;DHT22;3032;49.484;11.112;2022-09-17T02:43:34;11.50;99.90
6008;DHT22;3032;49.484;11.112;2022-09-17T02:54:33;11.30;99.90
6008;DHT22;3032;49.484;11.112;2022-09-17T03:02:23;11.20;99.90
6008;DHT22;3032;49.484;11.112;2022-09-17T03:04:52;11.20;99.90
6008;DHT22;3032;49.484;11.112;2022-09-17T03:07:21;11.20;99.90
6008;DHT22;3032;49.484;11.112;2022-09-17T03:09:47;11.20;99.90
6008;DHT22;3032;49.484;11.112;2022-09-17T03:12:13;11.20;99.90
6008;DHT22;3032;49.484;11.112;2022-09-17T03:14:38;11.30;99.90
6008;DHT22;3032;49.484;11.112;2022-09-17T03:17:04;11.30;99.90
6008;DHT22;3032;49.484;11.112;2022-09-17T03:19:30;11.10;99.90
6008;DHT22;3032;49.484;11.112;2022-09-17T03:21:55;11.00;99.90
6008;DHT22;3032;49.484;11.112;2022-09-17T03:24:21;10.90;99.90
6008;DHT22;3032;49.484;11.112;2022-09-17T03:26:47;10.80;99.90
6008;DHT22;3032;49.484;11.112;2022-09-17T03:29:14;10.90;99.90
6008;DHT22;3032;49.484;11.112;2022-09-17T03:31:39;11.00;99.90
6008;DHT22;3032;49.484;11.112;2022-09-17T03:34:05;11.20;99.90
6008;DHT22;3032;49.484;11.112;2022-09-17T03:36:32;11.10;99.90
6008;DHT22;3032;49.484;11.112;2022-09-17T03:38:58;11.10;99.90
6008;DHT22;3032;49.484;11.112;2022-09-17T03:41:24;11.10;99.90
6008;DHT22;3032;49.484;11.112;2022-09-17T03:43:50;11.10;99.90
6008;DHT22;3032;49.484;11.112;2022-09-17T03:46:16;11.00;99.90
6008;DHT22;3032;49.484;11.112;2022-09-17T03:48:42;11.20;99.90
6008;DHT22;3032;49.484;11.112;2022-09-17T03:51:07;11.10;99.90
6008;DHT22;3032;49.484;11.112;2022-09-17T03:53:33;11.20;99.90
6008;DHT22;3032;49.484;11.112;2022-09-17T03:56:00;11.30;99.90
6008;DHT22;3032;49.484;11.112;2022-09-17T03:58:26;11.50;99.90
6008;DHT22;3032;49.484;11.112;2022-09-17T04:00:52;11.30;99.90
6008;DHT22;3032;49.484;11.112;2022-09-17T04:03:20;11.40;99.90
6008;DHT22;3032;49.484;11.112;2022-09-17T04:05:46;11.30;99.90
6008;DHT22;3032;49.484;11.112;2022-09-17T04:08:12;11.40;99.90
6008;DHT22;3032;49.484;11.112;2022-09-17T04:10:37;11.60;99.90
6008;DHT22;3032;49.484;11.112;2022-09-17T04:13:03;11.60;99.90
6008;DHT22;3032;49.484;11.112;2022-09-17T04:15:28;11.50;99.90
6008;DHT22;3032;49.484;11.112;2022-09-17T04:17:55;11.40;99.90
6008;DHT22;3032;49.484;11.112;2022-09-17T04:20:25;11.50;99.90
6008;DHT22;3032;49.484;11.112;2022-09-17T04:22:51;11.50;99.90
6008;DHT22;3032;49.484;11.112;2022-09-17T04:25:17;11.50;99.90
6008;DHT22;3032;49.484;11.112;2022-09-17T04:27:43;11.60;99.90
6008;DHT22;3032;49.484;11.112;2022-09-17T04:30:10;11.60;99.90
6008;DHT22;3032;49.484;11.112;2022-09-17T04:32:36;11.60;99.90
6008;DHT22;3032;49.484;11.112;2022-09-17T04:35:01;11.60;99.90
6008;DHT22;3032;49.484;11.112;2022-09-17T04:37:27;11.60;99.90
6008;DHT22;3032;49.484;11.112;2022-09-17T04:39:52;11.60;99.90
6008;DHT22;3032;49.484;11.112;2022-09-17T04:42:18;11.60;99.90
6008;DHT22;3032;49.484;11.112;2022-09-17T04:44:43;11.50;99.90
6008;DHT22;3032;49.484;11.112;2022-09-17T04:47:09;11.40;99.90
6008;DHT22;3032;49.484;11.112;2022-09-17T04:49:35;11.50;99.90
6008;DHT22;3032;49.484;11.112;2022-09-17T04:52:00;11.60;99.90
6008;DHT22;3032;49.484;11.112;2022-09-17T04:54:26;11.50;99.90
6008;DHT22;3032;49.484;11.112;2022-09-17T04:56:51;11.50;99.90
6008;DHT22;3032;49.484;11.112;2022-09-17T04:59:17;11.40;99.90
6008;DHT22;3032;49.484;11.112;2022-09-17T05:01:43;11.50;99.90
6008;DHT22;3032;49.484;11.112;2022-09-17T05:04:09;11.40;99.90
6008;DHT22;3032;49.484;11.112;2022-09-17T05:06:34;12.10;99.90
6008;DHT22;3032;49.484;11.112;2022-09-17T05:09:00;11.40;99.90
6008;DHT22;3032;49.484;11.112;2022-09-17T05:11:26;11.40;99.90
6008;DHT22;3032;49.484;11.112;2022-09-17T05:13:52;11.40;99.90
6008;DHT22;3032;49.484;11.112;2022-09-17T05:16:17;11.40;99.90
6008;DHT22;3032;49.484;11.112;2022-09-17T05:18:43;11.50;99.90
6008;DHT22;3032;49.484;11.112;2022-09-17T05:21:09;11.50;99.90
6008;DHT22;3032;49.484;11.112;2022-09-17T05:23:34;11.40;99.90
6008;DHT22;3032;49.484;11.112;2022-09-17T05:26:00;11.40;99.90
6008;DHT22;3032;49.484;11.112;2022-09-17T05:28:26;11.20;99.90
6008;DHT22;3032;49.484;11.112;2022-09-17T05:30:52;11.10;99.90
6008;DHT22;3032;49.484;11.112;2022-09-17T05:33:17;11.20;99.90
6008;DHT22;3032;49.484;11.112;2022-09-17T05:35:45;11.00;99.90
6008;DHT22;3032;49.484;11.112;2022-09-17T05:38:11;11.20;99.90
6008;DHT22;3032;49.484;11.112;2022-09-17T05:40:36;11.40;99.90
6008;DHT22;3032;49.484;11.112;2022-09-17T05:43:04;11.10;99.90
6008;DHT22;3032;49.484;11.112;2022-09-17T05:45:32;11.30;99.90
6008;DHT22;3032;49.484;11.112;2022-09-17T05:47:59;11.00;99.90
6008;DHT22;3032;49.484;11.112;2022-09-17T05:50:26;11.00;99.90
6008;DHT22;3032;49.484;11.112;2022-09-17T05:52:53;10.70;99.90
6008;DHT22;3032;49.484;11.112;2022-09-17T05:55:19;10.70;99.90
6008;DHT22;3032;49.484;11.112;2022-09-17T05:57:47;10.70;99.90
6008;DHT22;3032;49.484;11.112;2022-09-17T06:00:12;10.60;99.90
6008;DHT22;3032;49.484;11.112;2022-09-17T06:02:39;10.50;99.90
6008;DHT22;3032;49.484;11.112;2022-09-17T06:05:04;10.50;99.90
6008;DHT22;3032;49.484;11.112;2022-09-17T06:07:30;10.60;99.90
6008;DHT22;3032;49.484;11.112;2022-09-17T06:09:56;11.20;99.90
6008;DHT22;3032;49.484;11.112;2022-09-17T06:12:22;11.00;99.90
6008;DHT22;3032;49.484;11.112;2022-09-17T06:14:47;11.10;99.90
6008;DHT22;3032;49.484;11.112;2022-09-17T06:17:13;11.10;99.90
6008;DHT22;3032;49.484;11.112;2022-09-17T06:19:39;11.20;99.90
6008;DHT22;3032;49.484;11.112;2022-09-17T06:22:04;11.50;99.90
6008;DHT22;3032;49.484;11.112;2022-09-17T06:24:31;11.60;99.90
6008;DHT22;3032;49.484;11.112;2022-09-17T06:26:56;11.70;99.90
6008;DHT22;3032;49.484;11.112;2022-09-17T06:29:22;11.80;99.90
6008;DHT22;3032;49.484;11.112;2022-09-17T06:31:48;11.70;99.90
6008;DHT22;3032;49.484;11.112;2022-09-17T06:34:14;11.70;99.90
6008;DHT22;3032;49.484;11.112;2022-09-17T06:36:39;11.80;99.90
6008;DHT22;3032;49.484;11.112;2022-09-17T06:39:05;11.90;99.90
6008;DHT22;3032;49.484;11.112;2022-09-17T06:41:31;11.90;99.90
6008;DHT22;3032;49.484;11.112;2022-09-17T06:43:57;11.80;99.90
6008;DHT22;3032;49.484;11.112;2022-09-17T06:46:23;11.60;99.90
6008;DHT22;3032;49.484;11.112;2022-09-17T06:48:49;11.40;99.90
6008;DHT22;3032;49.484;11.112;2022-09-17T06:51:15;11.40;99.90
6008;DHT22;3032;49.484;11.112;2022-09-17T06:53:41;11.30;99.90
6008;DHT22;3032;49.484;11.112;2022-09-17T06:56:08;11.10;99.90
6008;DHT22;3032;49.484;11.112;2022-09-17T06:58:35;11.20;99.90
6008;DHT22;3032;49.484;11.112;2022-09-17T07:01:06;11.10;99.90
6008;DHT22;3032;49.484;11.112;2022-09-17T07:03:32;11.20;99.90
6008;DHT22;3032;49.484;11.112;2022-09-17T07:05:58;11.10;99.90
6008;DHT22;3032;49.484;11.112;2022-09-17T07:08:24;10.80;99.90
6008;DHT22;3032;49.484;11.112;2022-09-17T07:10:50;10.90;99.90
6008;DHT22;3032;49.484;11.112;2022-09-17T07:13:16;11.00;99.90
6008;DHT22;3032;49.484;11.112;2022-09-17T07:15:41;11.00;99.90
6008;DHT22;3032;49.484;11.112;2022-09-17T07:18:10;11.00;99.90
6008;DHT22;3032;49.484;11.112;2022-09-17T07:20:36;11.10;99.90
6008;DHT22;3032;49.484;11.112;2022-09-17T07:23:03;11.00;99.90
6008;DHT22;3032;49.484;11.112;2022-09-17T07:25:29;11.00;99.90
6008;DHT22;3032;49.484;11.112;2022-09-17T07:27:54;10.90;99.90
6008;DHT22;3032;49.484;11.112;2022-09-17T07:30:21;11.00;99.90
6008;DHT22;3032;49.484;11.112;2022-09-17T07:32:46;11.00;99.90
6008;DHT22;3032;49.484;11.112;2022-09-17T07:35:12;10.90;99.90
6008;DHT22;3032;49.484;11.112;2022-09-17T07:37:38;10.90;99.90
6008;DHT22;3032;49.484;11.112;2022-09-17T07:40:04;10.90;99.90
6008;DHT22;3032;49.484;11.112;2022-09-17T07:42:33;10.90;99.90
6008;DHT22;3032;49.484;11.112;2022-09-17T07:44:59;11.00;99.90
6008;DHT22;3032;49.484;11.112;2022-09-17T07:47:25;11.10;99.90
6008;DHT22;3032;49.484;11.112;2022-09-17T07:49:50;11.00;99.90
6008;DHT22;3032;49.484;11.112;2022-09-17T07:52:16;11.00;99.90
6008;DHT22;3032;49.484;11.112;2022-09-17T07:54:41;11.00;99.90
6008;DHT22;3032;49.484;11.112;2022-09-17T07:57:07;11.00;99.90
6008;DHT22;3032;49.484;11.112;2022-09-17T07:59:32;11.10;99.90
6008;DHT22;3032;49.484;11.112;2022-09-17T08:01:58;11.10;99.90
6008;DHT22;3032;49.484;11.112;2022-09-17T08:04:24;11.20;99.90
6008;DHT22;3032;49.484;11.112;2022-09-17T08:06:49;11.10;99.90
6008;DHT22;3032;49.484;11.112;2022-09-17T08:09:16;11.00;99.90
6008;DHT22;3032;49.484;11.112;2022-09-17T08:11:43;11.00;99.90
6008;DHT22;3032;49.484;11.112;2022-09-17T08:14:11;11.20;99.90
6008;DHT22;3032;49.484;11.112;2022-09-17T08:16:37;11.30;99.90
6008;DHT22;3032;49.484;11.112;2022-09-17T08:19:03;11.30;99.90
6008;DHT22;3032;49.484;11.112;2022-09-17T08:21:28;11.40;99.90
6008;DHT22;3032;49.484;11.112;2022-09-17T08:23:54;11.40;99.90
6008;DHT22;3032;49.484;11.112;2022-09-17T08:26:21;11.30;99.90
6008;DHT22;3032;49.484;11.112;2022-09-17T08:28:54;11.20;99.90
6008;DHT22;3032;49.484;11.112;2022-09-17T08:31:22;11.40;99.90
6008;DHT22;3032;49.484;11.112;2022-09-17T08:33:48;11.40;99.90
6008;DHT22;3032;49.484;11.112;2022-09-17T08:36:16;11.50;99.90
6008;DHT22;3032;49.484;11.112;2022-09-17T08:38:43;11.50;99.90
6008;DHT22;3032;49.484;11.112;2022-09-17T08:44:12;11.50;99.90
6008;DHT22;3032;49.484;11.112;2022-09-17T08:46:46;11.60;99.90
6008;DHT22;3032;49.484;11.112;2022-09-17T08:49:48;11.90;99.90
6008;DHT22;3032;49.484;11.112;2022-09-17T08:55:45;11.80;99.90
6008;DHT22;3032;49.484;11.112;2022-09-17T09:01:32;12.20;99.90
6008;DHT22;3032;49.484;11.112;2022-09-17T09:04:29;12.10;99.90
6008;DHT22;3032;49.484;11.112;2022-09-17T09:07:12;12.40;99.90
6008;DHT22;3032;49.484;11.112;2022-09-17T09:09:51;12.70;99.90
6008;DHT22;3032;49.484;11.112;2022-09-17T09:12:24;13.00;99.90
6008;DHT22;3032;49.484;11.112;2022-09-17T09:14:57;13.40;99.90
6008;DHT22;3032;49.484;11.112;2022-09-17T09:17:31;14.00;99.90
6008;DHT22;3032;49.484;11.112;2022-09-17T09:19:58;14.80;99.90
6008;DHT22;3032;49.484;11.112;2022-09-17T09:30:22;15.80;99.90
6008;DHT22;3032;49.484;11.112;2022-09-17T09:35:26;15.70;99.90
6008;DHT22;3032;49.484;11.112;2022-09-17T09:40:54;15.10;99.90
6008;DHT22;3032;49.484;11.112;2022-09-17T09:43:42;15.40;99.90
6008;DHT22;3032;49.484;11.112;2022-09-17T09:52:04;15.10;99.90
6008;DHT22;3032;49.484;11.112;2022-09-17T09:54:54;15.30;99.90
6008;DHT22;3032;49.484;11.112;2022-09-17T09:57:46;15.90;99.90
6008;DHT22;3032;49.484;11.112;2022-09-17T10:00:34;16.30;99.90
6008;DHT22;3032;49.484;11.112;2022-09-17T10:06:01;17.30;99.90
6008;DHT22;3032;49.484;11.112;2022-09-17T10:08:28;17.70;99.90
6008;DHT22;3032;49.484;11.112;2022-09-17T10:13:32;18.60;99.90
6008;DHT22;3032;49.484;11.112;2022-09-17T10:18:42;19.20;99.90
6008;DHT22;3032;49.484;11.112;2022-09-17T10:21:19;19.50;99.90
6008;DHT22;3032;49.484;11.112;2022-09-17T10:23:45;19.00;99.90
6008;DHT22;3032;49.484;11.112;2022-09-17T10:26:25;18.90;99.90
6008;DHT22;3032;49.484;11.112;2022-09-17T10:29:00;18.80;99.90
6008;DHT22;3032;49.484;11.112;2022-09-17T10:31:27;19.70;99.90
6008;DHT22;3032;49.484;11.112;2022-09-17T10:34:02;20.70;99.90
6008;DHT22;3032;49.484;11.112;2022-09-17T10:36:45;21.90;99.70
6008;DHT22;3032;49.484;11.112;2022-09-17T10:39:37;23.00;99.00
6008;DHT22;3032;49.484;11.112;2022-09-17T10:42:16;23.00;96.10
6008;DHT22;3032;49.484;11.112;2022-09-17T10:44:56;23.60;95.90
6008;DHT22;3032;49.484;11.112;2022-09-17T10:47:30;23.40;93.80
6008;DHT22;3032;49.484;11.112;2022-09-17T10:50:03;23.00;92.50
6008;DHT22;3032;49.484;11.112;2022-09-17T10:52:39;22.60;94.10
6008;DHT22;3032;49.484;11.112;2022-09-17T11:07:03;19.40;96.00
6008;DHT22;3032;49.484;11.112;2022-09-17T11:10:04;18.20;99.00
6008;DHT22;3032;49.484;11.112;2022-09-17T11:13:00;17.60;99.90
6008;DHT22;3032;49.484;11.112;2022-09-17T11:18:34;17.20;99.90
6008;DHT22;3032;49.484;11.112;2022-09-17T11:27:09;17.40;99.90
6008;DHT22;3032;49.484;11.112;2022-09-17T11:29:41;17.60;99.90
6008;DHT22;3032;49.484;11.112;2022-09-17T11:35:16;17.70;99.90
6008;DHT22;3032;49.484;11.112;2022-09-17T11:41:12;18.80;99.90
6008;DHT22;3032;49.484;11.112;2022-09-17T11:44:06;18.90;99.90
6008;DHT22;3032;49.484;11.112;2022-09-17T11:46:31;19.10;99.90
6008;DHT22;3032;49.484;11.112;2022-09-17T11:49:05;19.60;99.90
6008;DHT22;3032;49.484;11.112;2022-09-17T11:51:42;19.50;99.90
6008;DHT22;3032;49.484;11.112;2022-09-17T11:54:22;19.30;99.30
6008;DHT22;3032;49.484;11.112;2022-09-17T11:56:53;19.20;99.70
6008;DHT22;3032;49.484;11.112;2022-09-17T11:59:37;19.00;99.20
6008;DHT22;3032;49.484;11.112;2022-09-17T12:02:15;18.90;99.90
6008;DHT22;3032;49.484;11.112;2022-09-17T12:05:03;19.10;99.20
6008;DHT22;3032;49.484;11.112;2022-09-17T12:07:40;19.70;99.10
6008;DHT22;3032;49.484;11.112;2022-09-17T12:13:04;18.10;99.20
6008;DHT22;3032;49.484;11.112;2022-09-17T12:15:35;17.30;99.90
6008;DHT22;3032;49.484;11.112;2022-09-17T12:18:31;16.10;99.90
6008;DHT22;3032;49.484;11.112;2022-09-17T12:21:00;15.00;99.90
6008;DHT22;3032;49.484;11.112;2022-09-17T12:23:39;14.10;99.90
6008;DHT22;3032;49.484;11.112;2022-09-17T12:29:07;15.20;99.90
6008;DHT22;3032;49.484;11.112;2022-09-17T12:31:39;15.40;99.90
6008;DHT22;3032;49.484;11.112;2022-09-17T12:37:31;16.30;99.90
6008;DHT22;3032;49.484;11.112;2022-09-17T12:40:49;16.30;99.90
6008;DHT22;3032;49.484;11.112;2022-09-17T12:51:23;16.00;99.90
6008;DHT22;3032;49.484;11.112;2022-09-17T12:56:29;16.90;99.90
6008;DHT22;3032;49.484;11.112;2022-09-17T13:01:39;16.90;99.90
6008;DHT22;3032;49.484;11.112;2022-09-17T13:04:55;16.90;99.90
6008;DHT22;3032;49.484;11.112;2022-09-17T13:07:52;16.80;99.90
6008;DHT22;3032;49.484;11.112;2022-09-17T13:10:45;16.30;99.90
6008;DHT22;3032;49.484;11.112;2022-09-17T13:16:12;17.00;99.90
6008;DHT22;3032;49.484;11.112;2022-09-17T13:21:19;17.30;99.90
6008;DHT22;3032;49.484;11.112;2022-09-17T13:23:49;17.50;99.90
6008;DHT22;3032;49.484;11.112;2022-09-17T13:26:18;16.90;99.90
6008;DHT22;3032;49.484;11.112;2022-09-17T13:28:47;17.00;99.90
6008;DHT22;3032;49.484;11.112;2022-09-17T13:32:03;16.90;99.90
6008;DHT22;3032;49.484;11.112;2022-09-17T13:36:51;15.30;99.90
6008;DHT22;3032;49.484;11.112;2022-09-17T13:39:44;13.90;99.90
6008;DHT22;3032;49.484;11.112;2022-09-17T13:42:20;13.00;99.90
6008;DHT22;3032;49.484;11.112;2022-09-17T13:45:05;12.20;99.90
6008;DHT22;3032;49.484;11.112;2022-09-17T13:47:33;11.70;99.90
6008;DHT22;3032;49.484;11.112;2022-09-17T13:50:09;11.60;99.90
6008;DHT22;3032;49.484;11.112;2022-09-17T13:52:45;11.50;99.90
6008;DHT22;3032;49.484;11.112;2022-09-17T13:55:41;11.40;99.90
6008;DHT22;3032;49.484;11.112;2022-09-17T13:58:10;11.40;99.90
6008;DHT22;3032;49.484;11.112;2022-09-17T14:05:54;12.50;99.90
6008;DHT22;3032;49.484;11.112;2022-09-17T14:08:26;13.00;99.90
6008;DHT22;3032;49.484;11.112;2022-09-17T14:10:56;13.40;99.90
6008;DHT22;3032;49.484;11.112;2022-09-17T14:13:39;13.80;99.90
6008;DHT22;3032;49.484;11.112;2022-09-17T14:21:42;14.30;99.90
6008;DHT22;3032;49.484;11.112;2022-09-17T14:24:37;14.90;99.90
6008;DHT22;3032;49.484;11.112;2022-09-17T14:29:49;15.00;99.90
6008;DHT22;3032;49.484;11.112;2022-09-17T14:32:26;15.40;99.90
6008;DHT22;3032;49.484;11.112;2022-09-17T14:34:54;15.70;99.90
6008;DHT22;3032;49.484;11.112;2022-09-17T14:37:23;15.80;99.90
6008;DHT22;3032;49.484;11.112;2022-09-17T14:39:50;15.60;99.90
6008;DHT22;3032;49.484;11.112;2022-09-17T14:42:28;16.00;99.90
6008;DHT22;3032;49.484;11.112;2022-09-17T14:45:01;15.40;99.90
6008;DHT22;3032;49.484;11.112;2022-09-17T14:47:27;15.50;99.90
6008;DHT22;3032;49.484;11.112;2022-09-17T14:49:53;15.50;99.90
6008;DHT22;3032;49.484;11.112;2022-09-17T14:52:37;15.50;99.90
6008;DHT22;3032;49.484;11.112;2022-09-17T14:55:17;15.70;99.90
6008;DHT22;3032;49.484;11.112;2022-09-17T14:57:51;15.80;99.90
6008;DHT22;3032;49.484;11.112;2022-09-17T15:00:19;15.40;99.90
6008;DHT22;3032;49.484;11.112;2022-09-17T15:02:59;15.30;99.90
6008;DHT22;3032;49.484;11.112;2022-09-17T15:05:30;15.30;99.90
6008;DHT22;3032;49.484;11.112;2022-09-17T15:08:12;15.20;99.90
6008;DHT22;3032;49.484;11.112;2022-09-17T15:10:58;15.00;99.90
6008;DHT22;3032;49.484;11.112;2022-09-17T15:13:34;15.00;99.90
6008;DHT22;3032;49.484;11.112;2022-09-17T15:16:15;14.90;99.90
6008;DHT22;3032;49.484;11.112;2022-09-17T15:18:46;14.70;99.90
6008;DHT22;3032;49.484;11.112;2022-09-17T15:21:25;14.60;99.90
6008;DHT22;3032;49.484;11.112;2022-09-17T15:23:57;14.50;99.90
6008;DHT22;3032;49.484;11.112;2022-09-17T15:26:28;14.50;99.90
6008;DHT22;3032;49.484;11.112;2022-09-17T15:28:56;14.40;99.90
6008;DHT22;3032;49.484;11.112;2022-09-17T15:31:21;14.30;99.90
6008;DHT22;3032;49.484;11.112;2022-09-17T15:33:47;14.20;99.90
6008;DHT22;3032;49.484;11.112;2022-09-17T15:36:18;14.10;99.90
6008;DHT22;3032;49.484;11.112;2022-09-17T15:38:47;14.00;99.90
6008;DHT22;3032;49.484;11.112;2022-09-17T15:44:19;14.60;99.90
6008;DHT22;3032;49.484;11.112;2022-09-17T15:46:45;15.00;99.90
6008;DHT22;3032;49.484;11.112;2022-09-17T15:49:35;15.50;99.90
6008;DHT22;3032;49.484;11.112;2022-09-17T15:52:25;15.50;99.90
6008;DHT22;3032;49.484;11.112;2022-09-17T15:54:53;15.50;99.90
6008;DHT22;3032;49.484;11.112;2022-09-17T15:57:20;15.40;99.90
6008;DHT22;3032;49.484;11.112;2022-09-17T15:59:47;15.30;99.90
6008;DHT22;3032;49.484;11.112;2022-09-17T16:02:28;15.30;99.90
6008;DHT22;3032;49.484;11.112;2022-09-17T16:07:39;14.80;99.90
6008;DHT22;3032;49.484;11.112;2022-09-17T16:10:05;15.00;99.90
6008;DHT22;3032;49.484;11.112;2022-09-17T16:12:31;14.60;99.90
6008;DHT22;3032;49.484;11.112;2022-09-17T16:14:59;14.40;99.90
6008;DHT22;3032;49.484;11.112;2022-09-17T16:20:33;14.30;99.90
6008;DHT22;3032;49.484;11.112;2022-09-17T16:22:52;14.20;99.90
6008;DHT22;3032;49.484;11.112;2022-09-17T16:25:21;14.10;99.90
6008;DHT22;3032;49.484;11.112;2022-09-17T16:27:51;14.10;99.90
6008;DHT22;3032;49.484;11.112;2022-09-17T16:30:20;14.10;99.90
6008;DHT22;3032;49.484;11.112;2022-09-17T16:32:46;14.10;99.90
6008;DHT22;3032;49.484;11.112;2022-09-17T16:35:14;14.10;99.90
6008;DHT22;3032;49.484;11.112;2022-09-17T16:37:40;14.20;99.90
6008;DHT22;3032;49.484;11.112;2022-09-17T16:40:07;14.30;99.90
6008;DHT22;3032;49.484;11.112;2022-09-17T16:42:34;14.40;99.90
6008;DHT22;3032;49.484;11.112;2022-09-17T16:45:00;14.50;99.90
6008;DHT22;3032;49.484;11.112;2022-09-17T16:47:27;14.40;99.90
6008;DHT22;3032;49.484;11.112;2022-09-17T16:49:55;14.30;99.90
6008;DHT22;3032;49.484;11.112;2022-09-17T16:52:21;14.20;99.90
6008;DHT22;3032;49.484;11.112;2022-09-17T16:54:46;14.20;99.90
6008;DHT22;3032;49.484;11.112;2022-09-17T16:57:12;13.90;99.90
6008;DHT22;3032;49.484;11.112;2022-09-17T16:59:37;13.50;99.90
6008;DHT22;3032;49.484;11.112;2022-09-17T17:02:03;13.00;99.90
6008;DHT22;3032;49.484;11.112;2022-09-17T17:04:28;12.60;99.90
6008;DHT22;3032;49.484;11.112;2022-09-17T17:06:54;12.20;99.90
6008;DHT22;3032;49.484;11.112;2022-09-17T17:09:19;12.10;99.90
6008;DHT22;3032;49.484;11.112;2022-09-17T17:11:45;12.20;99.90
6008;DHT22;3032;49.484;11.112;2022-09-17T17:14:11;12.20;99.90
6008;DHT22;3032;49.484;11.112;2022-09-17T17:16:37;12.10;99.90
6008;DHT22;3032;49.484;11.112;2022-09-17T17:19:05;12.20;99.90
6008;DHT22;3032;49.484;11.112;2022-09-17T17:21:31;12.20;99.90
6008;DHT22;3032;49.484;11.112;2022-09-17T17:23:57;12.20;99.90
6008;DHT22;3032;49.484;11.112;2022-09-17T17:26:22;12.60;99.90
6008;DHT22;3032;49.484;11.112;2022-09-17T17:28:48;12.20;99.90
6008;DHT22;3032;49.484;11.112;2022-09-17T17:31:13;12.00;99.90
6008;DHT22;3032;49.484;11.112;2022-09-17T17:33:39;11.90;99.90
6008;DHT22;3032;49.484;11.112;2022-09-17T17:36:05;11.90;99.90
6008;DHT22;3032;49.484;11.112;2022-09-17T17:38:31;11.90;99.90
6008;DHT22;3032;49.484;11.112;2022-09-17T17:41:03;11.90;99.90
6008;DHT22;3032;49.484;11.112;2022-09-17T17:43:29;12.00;99.90
6008;DHT22;3032;49.484;11.112;2022-09-17T17:45:55;11.90;99.90
6008;DHT22;3032;49.484;11.112;2022-09-17T17:48:20;11.80;99.90
6008;DHT22;3032;49.484;11.112;2022-09-17T17:50:46;11.60;99.90
6008;DHT22;3032;49.484;11.112;2022-09-17T17:53:11;11.60;99.90
6008;DHT22;3032;49.484;11.112;2022-09-17T17:55:37;11.40;99.90
6008;DHT22;3032;49.484;11.112;2022-09-17T17:58:02;11.40;99.90
6008;DHT22;3032;49.484;11.112;2022-09-17T18:00:28;11.40;99.90
6008;DHT22;3032;49.484;11.112;2022-09-17T18:02:54;11.40;99.90
6008;DHT22;3032;49.484;11.112;2022-09-17T18:05:19;11.60;99.90
6008;DHT22;3032;49.484;11.112;2022-09-17T18:07:46;11.20;99.90
6008;DHT22;3032;49.484;11.112;2022-09-17T18:10:11;11.30;99.90
6008;DHT22;3032;49.484;11.112;2022-09-17T18:12:37;11.30;99.90
6008;DHT22;3032;49.484;11.112;2022-09-17T18:15:05;11.40;99.90
6008;DHT22;3032;49.484;11.112;2022-09-17T18:17:30;11.40;99.90
6008;DHT22;3032;49.484;11.112;2022-09-17T18:19:56;11.40;99.90
6008;DHT22;3032;49.484;11.112;2022-09-17T18:22:22;11.20;99.90
6008;DHT22;3032;49.484;11.112;2022-09-17T18:24:47;11.10;99.90
6008;DHT22;3032;49.484;11.112;2022-09-17T18:27:13;11.00;99.90
6008;DHT22;3032;49.484;11.112;2022-09-17T18:29:39;11.10;99.90
6008;DHT22;3032;49.484;11.112;2022-09-17T18:32:05;11.00;99.90
6008;DHT22;3032;49.484;11.112;2022-09-17T18:34:31;11.00;99.90
6008;DHT22;3032;49.484;11.112;2022-09-17T18:36:56;11.00;99.90